Time;durP1;ratioP1;P1;durP2;ratioP2;P2;SDS_P1;SDS_P2;PMS_P1;PMS_P2;Temp;Humidity;BMP_temperature;BMP_pressure;BME280_temperature;BME280_humidity;BME280_pressure;Samples;Min_cycle;Max_cycle;Signal;HPM_P1;HPM_P2
2021/10/05 00:01:15;;;;;;;4.85;3.78;;;10.30;99.90;;;;;;5016229;28;20037;-66
2021/10/05 00:03:42;;;;;;;7.03;4.40;;;10.20;99.90;;;;;;5017425;28;20026;-66
2021/10/05 00:06:10;;;;;;;8.50;4.50;;;10.20;99.90;;;;;;5018811;28;20040;-66
2021/10/05 00:08:38;;;;;;;8.05;4.15;;;10.20;99.90;;;;;;5019806;28;20022;-66
2021/10/05 00:11:08;;;;;;;6.65;3.80;;;10.10;99.90;;;;;;5019761;28;20030;-66
2021/10/05 00:13:36;;;;;;;6.85;4.28;;;10.10;99.90;;;;;;5019698;28;20034;-66
2021/10/05 00:16:04;;;;;;;9.18;4.85;;;10.10;99.90;;;;;;5020710;28;20048;-66
2021/10/05 00:18:31;;;;;;;6.25;3.95;;;10.10;99.90;;;;;;5020986;28;20018;-66
2021/10/05 00:20:59;;;;;;;7.68;4.70;;;10.10;99.90;;;;;;5020167;28;20028;-66
2021/10/05 00:23:26;;;;;;;7.00;4.10;;;10.10;99.90;;;;;;5018753;28;20422;-66
2021/10/05 00:25:54;;;;;;;7.72;4.25;;;10.10;99.90;;;;;;5018635;28;20014;-66
2021/10/05 00:28:22;;;;;;;7.05;4.30;;;10.10;99.90;;;;;;5036266;28;20049;-66
2021/10/05 00:30:50;;;;;;;7.72;4.55;;;10.10;99.90;;;;;;5039558;28;20029;-66
2021/10/05 00:33:18;;;;;;;7.85;4.82;;;10.00;99.90;;;;;;5039347;28;20026;-66
2021/10/05 00:35:45;;;;;;;7.03;4.47;;;10.00;99.90;;;;;;5021573;28;20052;-66
2021/10/05 00:38:12;;;;;;;8.23;4.28;;;10.00;99.90;;;;;;5039048;28;20113;-66
2021/10/05 00:40:40;;;;;;;7.93;4.90;;;9.90;99.90;;;;;;5039141;28;20026;-66
2021/10/05 00:43:08;;;;;;;6.90;4.70;;;10.00;99.90;;;;;;5040134;28;20104;-66
2021/10/05 00:45:37;;;;;;;7.20;4.65;;;9.90;99.90;;;;;;5039953;28;20017;-66
2021/10/05 00:48:06;;;;;;;6.22;4.35;;;9.90;99.90;;;;;;5040339;28;20056;-66
2021/10/05 00:50:34;;;;;;;7.57;4.70;;;9.90;99.90;;;;;;5022669;28;20057;-66
2021/10/05 00:53:02;;;;;;;7.25;4.47;;;9.90;99.90;;;;;;5040493;28;20021;-66
2021/10/05 00:55:29;;;;;;;9.48;4.78;;;9.90;99.90;;;;;;5040263;28;20473;-66
2021/10/05 00:57:57;;;;;;;5.80;3.97;;;9.90;99.90;;;;;;5022122;28;20160;-66
2021/10/05 01:00:25;;;;;;;8.40;5.30;;;9.90;99.90;;;;;;5039880;28;20037;-66
2021/10/05 01:02:52;;;;;;;7.88;4.57;;;9.90;99.90;;;;;;5021253;28;20448;-66
2021/10/05 01:05:19;;;;;;;7.90;4.80;;;9.90;99.90;;;;;;5021045;28;20025;-66
2021/10/05 01:07:48;;;;;;;7.00;4.75;;;9.80;99.90;;;;;;5038655;28;20317;-66
2021/10/05 01:10:20;;;;;;;7.90;4.68;;;9.90;99.90;;;;;;5038543;28;20029;-66
2021/10/05 01:12:51;;;;;;;9.13;4.65;;;9.90;99.90;;;;;;5038526;28;20049;-66
2021/10/05 01:15:22;;;;;;;8.18;4.60;;;9.90;99.90;;;;;;5038384;28;20085;-66
2021/10/05 01:17:50;;;;;;;8.80;5.07;;;9.90;99.90;;;;;;5037400;28;20029;-66
2021/10/05 01:20:17;;;;;;;6.57;4.35;;;9.90;99.90;;;;;;5038139;28;20033;-66
2021/10/05 01:22:45;;;;;;;6.88;4.95;;;9.90;99.90;;;;;;5039449;28;20021;-66
2021/10/05 01:25:15;;;;;;;8.23;5.15;;;9.90;99.90;;;;;;5039193;28;20032;-66
2021/10/05 01:27:49;;;;;;;9.48;4.63;;;9.90;99.90;;;;;;5039099;28;20119;-66
2021/10/05 01:30:18;;;;;;;10.80;4.43;;;9.90;99.90;;;;;;5039567;28;20033;-66
2021/10/05 01:32:45;;;;;;;8.25;5.10;;;9.90;99.90;;;;;;5039001;28;20025;-66
2021/10/05 01:35:13;;;;;;;7.88;4.85;;;9.90;99.90;;;;;;5039226;28;20026;-66
2021/10/05 01:37:41;;;;;;;10.20;5.18;;;9.90;99.90;;;;;;5021484;28;20029;-66
2021/10/05 01:40:11;;;;;;;8.18;4.82;;;9.90;99.90;;;;;;5038809;28;20025;-66
2021/10/05 01:42:38;;;;;;;7.95;5.03;;;9.80;99.90;;;;;;5038104;28;20021;-66
2021/10/05 01:45:06;;;;;;;10.73;4.88;;;9.80;99.90;;;;;;5037821;28;20029;-66
2021/10/05 01:47:33;;;;;;;7.95;5.53;;;9.80;99.90;;;;;;5037954;28;20018;-66
2021/10/05 01:50:01;;;;;;;7.03;4.20;;;9.80;99.90;;;;;;5037784;28;20021;-66
2021/10/05 01:52:29;;;;;;;10.52;5.18;;;9.80;99.90;;;;;;5020149;28;20330;-66
2021/10/05 01:54:56;;;;;;;7.93;5.00;;;9.80;99.90;;;;;;5038247;28;20014;-66
2021/10/05 01:57:24;;;;;;;9.93;5.60;;;9.90;99.90;;;;;;5038352;28;20024;-66
2021/10/05 01:59:52;;;;;;;6.85;4.82;;;9.80;99.90;;;;;;5037512;28;20037;-66
2021/10/05 02:02:20;;;;;;;8.63;4.90;;;9.80;99.90;;;;;;5037492;28;20017;-66
2021/10/05 02:04:47;;;;;;;11.50;5.35;;;9.80;99.90;;;;;;5038779;28;20017;-66
2021/10/05 02:07:15;;;;;;;8.07;5.25;;;9.80;99.90;;;;;;5020978;28;20021;-66
2021/10/05 02:09:49;;;;;;;8.68;6.05;;;9.80;99.90;;;;;;5038371;28;20032;-66
2021/10/05 02:12:17;;;;;;;7.20;4.55;;;9.80;99.90;;;;;;5038314;28;20013;-66
2021/10/05 02:14:48;;;;;;;8.80;4.82;;;9.80;99.90;;;;;;5038269;28;20083;-66
2021/10/05 02:17:16;;;;;;;8.15;5.18;;;9.80;99.90;;;;;;5038271;28;20025;-66
2021/10/05 02:19:42;;;;;;;9.25;5.10;;;9.80;99.90;;;;;;5038603;28;20028;-66
2021/10/05 02:22:09;;;;;;;7.60;4.72;;;9.80;99.90;;;;;;5038626;28;20025;-66
2021/10/05 02:24:45;;;;;;;8.00;5.30;;;9.80;99.90;;;;;;5019674;28;20024;-66
2021/10/05 02:27:16;;;;;;;7.85;4.88;;;9.70;99.90;;;;;;5036823;28;20049;-66
2021/10/05 02:29:44;;;;;;;7.07;4.65;;;9.70;99.90;;;;;;5019421;28;20175;-66
2021/10/05 02:32:14;;;;;;;10.95;5.80;;;9.70;99.90;;;;;;5037021;28;20025;-66
2021/10/05 02:34:42;;;;;;;7.18;4.82;;;9.70;99.90;;;;;;5019441;28;20022;-66
2021/10/05 02:37:09;;;;;;;7.53;5.05;;;9.70;99.90;;;;;;5036877;28;20029;-66
2021/10/05 02:39:37;;;;;;;9.25;5.55;;;9.70;99.90;;;;;;5019396;28;20025;-66
2021/10/05 02:42:05;;;;;;;9.57;5.35;;;9.70;99.90;;;;;;5019294;28;20033;-66
2021/10/05 02:44:34;;;;;;;7.93;4.85;;;9.70;99.90;;;;;;5019451;28;20017;-66
2021/10/05 02:47:02;;;;;;;8.35;5.07;;;9.70;99.90;;;;;;5037777;28;20032;-66
2021/10/05 02:49:29;;;;;;;8.98;5.07;;;9.70;99.90;;;;;;5020029;28;20060;-66
2021/10/05 02:51:57;;;;;;;7.88;5.38;;;9.70;99.90;;;;;;5037828;28;20033;-66
2021/10/05 02:54:25;;;;;;;8.07;5.47;;;9.60;99.90;;;;;;5037602;28;20169;-66
2021/10/05 02:56:52;;;;;;;9.38;5.32;;;9.60;99.90;;;;;;5020006;28;20429;-66
2021/10/05 02:59:20;;;;;;;8.25;5.07;;;9.60;99.90;;;;;;5037549;28;20108;-66
2021/10/05 03:01:48;;;;;;;8.55;5.55;;;9.60;99.90;;;;;;5037608;28;20026;-66
2021/10/05 03:04:16;;;;;;;8.43;4.93;;;9.60;99.90;;;;;;5037145;28;20026;-66
2021/10/05 03:06:43;;;;;;;9.50;6.13;;;9.60;99.90;;;;;;5036590;28;20017;-66
2021/10/05 03:09:11;;;;;;;9.75;6.03;;;9.60;99.90;;;;;;5018952;28;20049;-66
2021/10/05 03:11:38;;;;;;;7.43;4.97;;;9.60;99.90;;;;;;5036615;28;20032;-66
2021/10/05 03:14:06;;;;;;;8.48;5.68;;;9.60;99.90;;;;;;5036948;28;20458;-66
2021/10/05 03:16:34;;;;;;;9.93;5.78;;;9.60;99.90;;;;;;5036486;28;20025;-66
2021/10/05 03:19:01;;;;;;;7.72;4.82;;;9.60;99.90;;;;;;5036510;28;20018;-66
2021/10/05 03:21:28;;;;;;;7.32;4.55;;;9.60;99.90;;;;;;5018944;28;20078;-66
2021/10/05 03:23:56;;;;;;;10.63;5.18;;;9.60;99.90;;;;;;5036328;28;20025;-66
2021/10/05 03:26:23;;;;;;;8.55;5.40;;;9.60;99.90;;;;;;5018481;28;20045;-66
2021/10/05 03:28:52;;;;;;;12.15;6.00;;;9.60;99.90;;;;;;5019696;28;20075;-66
2021/10/05 03:31:20;;;;;;;10.38;6.13;;;9.50;99.90;;;;;;5037339;28;20036;-66
2021/10/05 03:33:47;;;;;;;10.20;6.22;;;9.50;99.90;;;;;;5037628;28;20018;-66
2021/10/05 03:36:16;;;;;;;9.93;6.47;;;9.50;99.90;;;;;;5037371;28;20440;-66
2021/10/05 03:38:44;;;;;;;10.70;6.07;;;9.50;99.90;;;;;;5037447;28;20354;-66
2021/10/05 03:41:12;;;;;;;9.80;6.22;;;9.50;99.90;;;;;;5038958;28;20100;-66
2021/10/05 03:43:40;;;;;;;9.25;6.07;;;9.60;99.90;;;;;;5041620;28;20025;-66
2021/10/05 03:46:07;;;;;;;10.05;6.10;;;9.60;99.90;;;;;;5041038;28;20028;-66
2021/10/05 03:48:35;;;;;;;10.07;5.95;;;9.60;99.90;;;;;;5040251;28;20417;-66
2021/10/05 03:51:06;;;;;;;11.75;5.95;;;9.60;99.90;;;;;;5040125;28;20096;-66
2021/10/05 03:53:34;;;;;;;8.95;5.78;;;9.50;99.90;;;;;;5039962;28;20078;-66
2021/10/05 03:56:01;;;;;;;9.45;6.22;;;9.50;99.90;;;;;;5039866;28;20034;-66
2021/10/05 03:58:29;;;;;;;9.90;6.00;;;9.50;99.90;;;;;;5040456;28;20029;-66
2021/10/05 04:00:56;;;;;;;8.77;5.72;;;9.50;99.90;;;;;;5040347;28;20352;-66
2021/10/05 04:03:24;;;;;;;10.15;5.80;;;9.50;99.90;;;;;;5039801;28;20028;-66
2021/10/05 04:05:52;;;;;;;11.68;6.50;;;9.50;99.90;;;;;;5039747;28;20083;-66
2021/10/05 04:08:19;;;;;;;10.70;6.10;;;9.60;99.90;;;;;;5022168;28;20021;-66
2021/10/05 04:10:48;;;;;;;9.07;5.82;;;9.60;99.90;;;;;;5022966;28;20030;-66
2021/10/05 04:13:17;;;;;;;9.05;5.40;;;9.60;99.90;;;;;;5041187;28;20074;-66
2021/10/05 04:15:45;;;;;;;11.27;5.15;;;9.50;99.90;;;;;;5041011;28;20083;-66
2021/10/05 04:18:13;;;;;;;9.60;6.13;;;9.50;99.90;;;;;;5040399;28;20417;-66
2021/10/05 04:20:40;;;;;;;8.65;5.57;;;9.50;99.90;;;;;;5040352;28;20036;-66
2021/10/05 04:23:08;;;;;;;8.95;5.45;;;9.60;99.90;;;;;;5041000;28;20029;-66
2021/10/05 04:25:35;;;;;;;11.40;5.57;;;9.50;99.90;;;;;;5040862;28;20037;-66
2021/10/05 04:28:03;;;;;;;9.25;5.60;;;9.50;99.90;;;;;;5019079;28;20050;-66
2021/10/05 04:30:31;;;;;;;9.10;6.38;;;9.50;99.90;;;;;;5018505;28;20093;-66
2021/10/05 04:32:58;;;;;;;11.38;6.03;;;9.50;99.90;;;;;;5019878;28;20301;-66
2021/10/05 04:35:26;;;;;;;10.82;5.80;;;9.50;99.90;;;;;;5019719;28;20033;-66
2021/10/05 04:37:54;;;;;;;9.57;5.80;;;9.50;99.90;;;;;;5018762;28;20309;-66
2021/10/05 04:40:21;;;;;;;10.50;6.53;;;9.50;99.90;;;;;;5019271;28;20086;-66
2021/10/05 04:42:49;;;;;;;11.50;6.18;;;9.50;99.90;;;;;;5019462;28;20022;-66
2021/10/05 04:45:16;;;;;;;10.98;5.70;;;9.50;99.90;;;;;;5019757;28;20050;-66
2021/10/05 04:47:44;;;;;;;14.32;6.13;;;9.50;99.90;;;;;;5019626;28;20018;-66
2021/10/05 04:50:14;;;;;;;7.72;5.15;;;9.50;99.90;;;;;;5019991;28;20048;-66
2021/10/05 04:52:42;;;;;;;8.75;5.50;;;9.40;99.90;;;;;;5018878;28;20025;-66
2021/10/05 04:55:11;;;;;;;16.15;5.47;;;9.50;99.90;;;;;;5021070;28;20280;-66
2021/10/05 04:57:39;;;;;;;12.13;5.43;;;9.50;99.90;;;;;;5019991;28;20271;-66
2021/10/05 05:00:07;;;;;;;10.75;5.47;;;9.50;99.90;;;;;;5018743;28;20492;-66
2021/10/05 05:02:35;;;;;;;8.80;5.90;;;9.40;99.90;;;;;;5019247;28;20062;-66
2021/10/05 05:05:03;;;;;;;10.13;5.82;;;9.40;99.90;;;;;;5019805;28;20064;-66
2021/10/05 05:07:30;;;;;;;9.80;6.00;;;9.40;99.90;;;;;;5020073;28;20045;-66
2021/10/05 05:09:58;;;;;;;8.65;5.35;;;9.40;99.90;;;;;;5019458;28;20021;-65
2021/10/05 05:12:25;;;;;;;9.80;5.78;;;9.40;99.90;;;;;;5018987;28;20307;-66
2021/10/05 05:14:52;;;;;;;8.88;6.10;;;9.40;99.90;;;;;;5018829;28;20024;-66
2021/10/05 05:17:19;;;;;;;9.90;5.53;;;9.40;99.90;;;;;;5018753;28;20046;-66
2021/10/05 05:19:46;;;;;;;11.02;6.35;;;9.40;99.90;;;;;;5017555;28;20080;-66
2021/10/05 05:22:14;;;;;;;10.57;6.22;;;9.40;99.90;;;;;;5018985;28;20030;-66
2021/10/05 05:24:41;;;;;;;7.88;4.93;;;9.40;99.90;;;;;;5018952;28;20022;-65
2021/10/05 05:27:09;;;;;;;13.63;7.13;;;9.40;99.90;;;;;;5024801;28;20049;-65
2021/10/05 05:29:36;;;;;;;9.52;6.03;;;9.40;99.90;;;;;;5038196;28;20022;-65
2021/10/05 05:32:04;;;;;;;8.77;5.40;;;9.40;99.90;;;;;;5038890;28;20033;-65
2021/10/05 05:34:31;;;;;;;10.35;6.05;;;9.40;99.90;;;;;;5021818;28;20021;-65
2021/10/05 05:36:59;;;;;;;9.95;6.15;;;9.40;99.90;;;;;;5039713;28;20052;-65
2021/10/05 05:39:27;;;;;;;10.55;6.05;;;9.40;99.90;;;;;;5021413;28;20083;-66
2021/10/05 05:41:54;;;;;;;12.15;6.28;;;9.40;99.90;;;;;;5022120;28;20036;-65
2021/10/05 05:44:22;;;;;;;10.43;6.15;;;9.40;99.90;;;;;;5039504;28;20018;-66
2021/10/05 05:46:49;;;;;;;11.35;7.03;;;9.40;99.90;;;;;;5021463;28;20491;-68
2021/10/05 05:49:17;;;;;;;12.23;6.75;;;9.40;99.90;;;;;;5038803;28;20017;-67
2021/10/05 05:51:45;;;;;;;11.02;6.70;;;9.40;99.90;;;;;;5020461;28;20087;-67
2021/10/05 05:54:12;;;;;;;9.55;5.85;;;9.40;99.90;;;;;;5037816;28;20032;-67
2021/10/05 05:56:40;;;;;;;10.13;6.00;;;9.40;99.90;;;;;;5038466;28;20022;-67
2021/10/05 05:59:08;;;;;;;24.67;8.45;;;9.40;99.90;;;;;;5037699;28;20025;-67
2021/10/05 06:01:36;;;;;;;11.43;6.93;;;9.50;99.90;;;;;;5037617;28;20034;-67
2021/10/05 06:04:05;;;;;;;8.27;5.68;;;9.50;99.90;;;;;;5037225;28;20021;-67
2021/10/05 06:06:33;;;;;;;16.35;6.18;;;9.50;99.90;;;;;;5038201;28;20021;-67
2021/10/05 06:09:01;;;;;;;10.48;6.47;;;9.50;99.90;;;;;;5037374;28;20026;-67
2021/10/05 06:11:33;;;;;;;11.88;6.00;;;9.60;99.90;;;;;;5019812;28;20033;-68
2021/10/05 06:14:02;;;;;;;12.35;6.18;;;9.60;99.90;;;;;;5038393;28;20036;-67
2021/10/05 06:16:29;;;;;;;15.50;6.18;;;9.60;99.90;;;;;;5020692;28;20026;-67
2021/10/05 06:18:57;;;;;;;8.40;5.75;;;9.60;99.90;;;;;;5038120;28;20480;-67
2021/10/05 06:21:24;;;;;;;13.73;6.45;;;9.70;99.90;;;;;;5038566;28;20022;-67
2021/10/05 06:23:51;;;;;;;8.75;6.00;;;9.70;99.90;;;;;;5038101;28;20013;-67
2021/10/05 06:26:19;;;;;;;10.75;6.47;;;9.70;99.90;;;;;;5037917;28;20022;-67
2021/10/05 06:28:47;;;;;;;8.60;5.90;;;9.70;99.90;;;;;;5017012;28;20366;-68
2021/10/05 06:31:15;;;;;;;8.50;5.38;;;9.70;99.90;;;;;;5018651;28;20029;-68
2021/10/05 06:33:42;;;;;;;7.38;5.05;;;9.80;99.90;;;;;;5016191;28;20033;-68
2021/10/05 06:36:09;;;;;;;13.07;6.35;;;9.80;99.90;;;;;;5016855;28;20025;-69
2021/10/05 06:38:37;;;;;;;8.85;4.88;;;9.80;99.90;;;;;;5017228;28;20029;-69
2021/10/05 06:41:05;;;;;;;11.00;5.93;;;9.90;99.90;;;;;;5017632;28;20022;-69
2021/10/05 06:43:35;;;;;;;12.77;5.50;;;9.80;99.90;;;;;;5017277;28;20065;-69
2021/10/05 06:46:03;;;;;;;7.57;5.50;;;9.90;99.90;;;;;;5015941;28;20456;-69
2021/10/05 06:48:31;;;;;;;9.35;5.00;;;9.90;99.90;;;;;;5016904;28;20105;-69
2021/10/05 06:50:58;;;;;;;9.75;5.28;;;10.00;99.90;;;;;;5015912;28;20377;-69
2021/10/05 06:53:27;;;;;;;10.90;5.20;;;10.00;99.90;;;;;;5017618;28;20445;-68
2021/10/05 06:55:55;;;;;;;6.05;4.03;;;10.10;99.90;;;;;;5018328;28;20040;-69
2021/10/05 06:58:22;;;;;;;9.95;3.80;;;10.20;99.90;;;;;;5018300;28;20040;-76
2021/10/05 07:00:51;;;;;;;7.43;3.40;;;10.30;99.90;;;;;;5016579;28;20414;-67
2021/10/05 07:03:19;;;;;;;5.28;3.40;;;10.40;99.90;;;;;;5017792;28;20076;-69
2021/10/05 07:05:47;;;;;;;3.00;2.13;;;10.50;99.90;;;;;;5017769;28;20045;-69
2021/10/05 07:08:15;;;;;;;3.67;1.50;;;10.70;99.90;;;;;;5016688;28;20028;-70
2021/10/05 07:10:43;;;;;;;2.42;1.30;;;10.80;99.90;;;;;;5017675;28;20330;-69
2021/10/05 07:13:10;;;;;;;3.80;1.17;;;10.90;99.90;;;;;;5017055;28;20424;-69
2021/10/05 07:15:38;;;;;;;1.50;0.95;;;11.10;99.90;;;;;;5016505;28;20057;-69
2021/10/05 07:18:06;;;;;;;2.55;1.08;;;11.20;99.90;;;;;;5016614;28;20132;-69
2021/10/05 07:20:33;;;;;;;2.13;1.10;;;11.30;99.90;;;;;;5015600;28;20022;-69
2021/10/05 07:23:00;;;;;;;1.90;1.10;;;11.40;99.90;;;;;;5017070;28;20429;-72
2021/10/05 07:25:31;;;;;;;2.35;1.08;;;11.50;99.90;;;;;;5015511;28;20377;-70
2021/10/05 07:27:59;;;;;;;4.28;1.30;;;11.70;99.90;;;;;;5029348;28;20048;-68
2021/10/05 07:30:28;;;;;;;2.17;1.00;;;11.80;99.90;;;;;;5036279;28;20038;-70
2021/10/05 07:33:04;;;;;;;2.55;1.20;;;11.80;99.90;;;;;;5036250;28;20061;-69
2021/10/05 07:35:32;;;;;;;1.63;0.70;;;11.90;99.90;;;;;;5037688;28;20059;-69
2021/10/05 07:38:01;;;;;;;1.60;0.85;;;12.00;99.90;;;;;;5020000;28;20056;-69
2021/10/05 07:40:29;;;;;;;3.22;1.00;;;12.10;99.90;;;;;;5019718;28;20036;-69
2021/10/05 07:42:57;;;;;;;2.17;0.80;;;12.10;99.90;;;;;;5037117;28;20409;-69
2021/10/05 07:45:30;;;;;;;2.10;0.75;;;12.20;99.90;;;;;;5037061;28;20017;-69
2021/10/05 07:47:57;;;;;;;2.15;1.00;;;12.20;99.90;;;;;;5037136;28;20020;-69
2021/10/05 07:50:26;;;;;;;1.60;0.77;;;12.30;99.90;;;;;;5037330;28;20036;-69
2021/10/05 07:52:53;;;;;;;2.05;0.63;;;12.40;99.90;;;;;;5036618;28;20045;-69
2021/10/05 07:55:21;;;;;;;1.35;0.60;;;12.40;99.90;;;;;;5036618;28;20021;-69
2021/10/05 07:57:49;;;;;;;2.35;0.85;;;12.40;99.90;;;;;;5036191;28;20017;-68
2021/10/05 08:00:17;;;;;;;2.53;0.90;;;12.50;99.90;;;;;;5035899;28;20029;-69
2021/10/05 08:02:45;;;;;;;1.50;0.90;;;12.50;99.90;;;;;;5035964;28;20329;-69
2021/10/05 08:05:15;;;;;;;2.08;0.65;;;12.60;99.90;;;;;;5036447;28;20022;-69
2021/10/05 08:07:45;;;;;;;1.42;0.77;;;12.60;99.90;;;;;;5036056;28;20083;-69
2021/10/05 08:10:14;;;;;;;1.90;0.60;;;12.60;99.90;;;;;;5018484;28;20330;-69
2021/10/05 08:12:41;;;;;;;2.05;0.70;;;12.50;99.90;;;;;;5036057;28;20017;-69
2021/10/05 08:15:09;;;;;;;1.25;0.75;;;12.50;99.90;;;;;;5037125;28;20428;-70
2021/10/05 08:17:38;;;;;;;0.95;0.50;;;12.40;99.90;;;;;;5037394;28;20026;-69
2021/10/05 08:20:07;;;;;;;1.50;0.60;;;12.40;99.90;;;;;;5036778;28;20183;-69
2021/10/05 08:22:34;;;;;;;1.35;0.50;;;12.30;99.90;;;;;;5036769;28;20024;-69
2021/10/05 08:25:02;;;;;;;0.70;0.40;;;12.30;99.90;;;;;;5019255;28;20064;-69
2021/10/05 08:27:30;;;;;;;1.10;0.52;;;12.20;99.90;;;;;;5039040;28;20326;-69
2021/10/05 08:29:58;;;;;;;1.15;0.47;;;12.10;99.90;;;;;;5040284;28;20024;-69
2021/10/05 08:32:26;;;;;;;0.50;0.35;;;12.10;99.90;;;;;;5040235;28;20028;-69
2021/10/05 08:34:53;;;;;;;1.10;0.50;;;12.10;99.90;;;;;;5021909;28;20026;-69
2021/10/05 08:37:21;;;;;;;0.98;0.60;;;12.10;99.90;;;;;;5039835;28;20021;-69
2021/10/05 08:39:49;;;;;;;2.03;0.60;;;12.10;99.90;;;;;;5039784;28;20014;-69
2021/10/05 08:42:22;;;;;;;0.80;0.50;;;12.10;99.90;;;;;;5021622;28;20064;-69
2021/10/05 08:44:50;;;;;;;0.93;0.50;;;12.10;99.90;;;;;;5039701;28;20428;-69
2021/10/05 08:47:19;;;;;;;1.33;0.50;;;12.10;99.90;;;;;;5039012;28;20028;-69
2021/10/05 08:49:47;;;;;;;1.35;0.80;;;12.10;99.90;;;;;;5039576;28;20076;-69
2021/10/05 08:52:16;;;;;;;1.10;0.50;;;12.00;99.90;;;;;;5039512;28;20033;-69
2021/10/05 08:54:43;;;;;;;1.48;0.80;;;12.00;99.90;;;;;;5039509;28;20429;-70
2021/10/05 08:57:11;;;;;;;1.35;0.70;;;12.00;99.90;;;;;;5040075;28;20084;-69
2021/10/05 08:59:39;;;;;;;1.15;0.50;;;12.00;99.90;;;;;;5040090;28;20022;-69
2021/10/05 09:02:15;;;;;;;1.27;0.70;;;12.00;99.90;;;;;;5039738;28;20040;-69
2021/10/05 09:04:43;;;;;;;3.13;0.65;;;12.00;99.90;;;;;;5039686;28;20354;-69
2021/10/05 09:07:25;;;;;;;1.98;0.70;;;12.10;99.90;;;;;;5039808;28;20037;-69
2021/10/05 09:09:59;;;;;;;1.63;0.60;;;12.20;99.90;;;;;;5039618;28;20309;-69
2021/10/05 09:12:28;;;;;;;1.95;0.60;;;12.30;99.90;;;;;;5039474;28;20124;-69
2021/10/05 09:14:57;;;;;;;1.25;0.63;;;12.40;99.90;;;;;;5039544;28;20060;-69
2021/10/05 09:17:26;;;;;;;1.15;0.60;;;12.50;99.90;;;;;;5021043;28;20022;-69
2021/10/05 09:19:56;;;;;;;2.42;0.43;;;12.50;99.90;;;;;;5038491;28;20113;-70
2021/10/05 09:22:26;;;;;;;1.23;0.50;;;12.60;99.90;;;;;;5039292;28;20360;-69
2021/10/05 09:24:59;;;;;;;2.42;0.93;;;12.70;99.90;;;;;;5038975;28;20024;-69
2021/10/05 09:27:28;;;;;;;1.20;0.68;;;12.70;99.90;;;;;;5038330;28;20049;-70
2021/10/05 09:29:55;;;;;;;1.50;0.70;;;12.80;99.90;;;;;;5038625;28;20073;-70
2021/10/05 09:32:24;;;;;;;1.95;0.82;;;12.90;99.90;;;;;;5038777;28;20049;-69
2021/10/05 09:34:56;;;;;;;1.73;0.60;;;13.00;99.90;;;;;;5038765;28;20060;-70
2021/10/05 09:37:35;;;;;;;2.88;0.70;;;13.10;99.90;;;;;;5039410;28;20079;-69
2021/10/05 09:40:12;;;;;;;1.92;0.65;;;13.30;99.90;;;;;;5038335;28;20031;-69
2021/10/05 09:42:52;;;;;;;2.47;0.60;;;13.40;99.90;;;;;;5039057;28;20050;-69
2021/10/05 09:45:24;;;;;;;1.55;0.60;;;13.60;99.90;;;;;;5039466;28;20028;-69
2021/10/05 09:47:53;;;;;;;3.40;0.68;;;13.70;99.90;;;;;;5038889;28;20026;-69
2021/10/05 09:50:33;;;;;;;0.95;0.55;;;13.90;99.90;;;;;;5038847;28;20021;-69
2021/10/05 09:53:07;;;;;;;2.60;0.50;;;13.90;99.90;;;;;;5021239;28;20026;-69
2021/10/05 09:55:45;;;;;;;2.03;0.50;;;14.00;99.90;;;;;;5038724;28;20028;-69
2021/10/05 09:58:15;;;;;;;1.83;0.75;;;14.00;99.90;;;;;;5037982;28;20121;-70
2021/10/05 10:00:47;;;;;;;0.98;0.57;;;14.00;99.90;;;;;;5037881;28;20029;-70
2021/10/05 10:03:18;;;;;;;1.45;0.70;;;14.10;99.90;;;;;;5037688;28;20104;-69
2021/10/05 10:05:46;;;;;;;1.77;1.05;;;14.20;99.90;;;;;;5037627;28;20074;-69
2021/10/05 10:08:15;;;;;;;0.93;0.60;;;14.20;99.90;;;;;;5037509;28;20017;-70
2021/10/05 10:10:42;;;;;;;1.58;0.60;;;14.20;99.90;;;;;;5037812;28;20033;-69
2021/10/05 10:13:13;;;;;;;1.10;0.68;;;14.20;99.90;;;;;;5020138;28;20026;-70
2021/10/05 10:15:42;;;;;;;2.78;0.70;;;14.20;99.90;;;;;;5037981;28;20096;-70
2021/10/05 10:18:12;;;;;;;1.25;0.68;;;14.30;99.90;;;;;;5037497;28;20029;-70
2021/10/05 10:20:42;;;;;;;1.17;0.57;;;14.30;99.90;;;;;;5020679;28;20032;-70
2021/10/05 10:23:23;;;;;;;2.15;0.63;;;14.30;99.90;;;;;;5038388;28;20018;-69
2021/10/05 10:26:00;;;;;;;1.20;0.77;;;14.30;99.90;;;;;;5038712;28;20021;-70
2021/10/05 10:28:40;;;;;;;4.55;0.93;;;14.30;99.90;;;;;;5037741;28;20049;-69
2021/10/05 10:31:11;;;;;;;1.73;0.82;;;14.30;99.90;;;;;;5038512;28;20030;-69
2021/10/05 10:33:52;;;;;;;1.30;0.60;;;14.30;99.90;;;;;;5037968;28;20021;-70
2021/10/05 10:36:41;;;;;;;1.30;0.80;;;14.30;99.90;;;;;;5038569;28;20345;-69
2021/10/05 10:39:14;;;;;;;1.00;0.60;;;14.30;99.90;;;;;;5037162;28;20025;-69
2021/10/05 10:42:00;;;;;;;1.23;0.63;;;14.40;99.90;;;;;;5019494;28;20155;-70
2021/10/05 10:44:39;;;;;;;0.70;0.40;;;14.50;99.90;;;;;;5037596;28;20421;-70
2021/10/05 10:47:15;;;;;;;1.35;0.57;;;14.70;99.90;;;;;;5019378;28;20029;-69
2021/10/05 10:50:04;;;;;;;1.58;0.70;;;14.80;99.90;;;;;;5036825;28;20017;-70
2021/10/05 10:52:34;;;;;;;4.18;0.82;;;15.00;99.90;;;;;;5036869;28;20064;-70
2021/10/05 10:55:02;;;;;;;1.30;0.80;;;15.10;99.90;;;;;;5036749;28;20025;-70
2021/10/05 10:57:35;;;;;;;1.50;0.63;;;15.20;99.10;;;;;;5037041;28;20034;-69
2021/10/05 11:00:29;;;;;;;0.80;0.68;;;15.20;99.20;;;;;;5037002;28;20021;-69
2021/10/05 11:03:02;;;;;;;1.27;0.63;;;15.20;99.10;;;;;;5034639;28;20080;-69
2021/10/05 11:05:35;;;;;;;1.38;0.70;;;15.20;99.30;;;;;;5037555;28;20321;-69
2021/10/05 11:08:11;;;;;;;1.08;0.60;;;15.30;99.30;;;;;;5037845;28;20018;-70
2021/10/05 11:10:40;;;;;;;1.60;0.90;;;15.30;98.90;;;;;;5037101;28;20052;-70
2021/10/05 11:13:08;;;;;;;2.33;0.90;;;15.40;98.60;;;;;;5038197;28;20026;-69
2021/10/05 11:15:45;;;;;;;2.75;1.50;;;15.40;98.50;;;;;;5037502;28;20029;-69
2021/10/05 11:18:26;;;;;;;4.43;1.95;;;15.50;98.80;;;;;;5037767;28;20100;-70
2021/10/05 11:21:06;;;;;;;4.07;1.90;;;15.60;98.40;;;;;;5036369;28;20064;-70
2021/10/05 11:23:44;;;;;;;2.85;1.30;;;15.70;98.00;;;;;;5036427;28;20438;-69
2021/10/05 11:26:12;;;;;;;1.73;0.73;;;15.80;97.70;;;;;;5018903;28;20025;-70
2021/10/05 11:28:45;;;;;;;1.65;0.70;;;15.80;97.90;;;;;;5036203;28;20068;-70
2021/10/05 11:31:15;;;;;;;1.35;0.70;;;15.90;98.10;;;;;;5037253;28;20029;-70
2021/10/05 11:33:44;;;;;;;1.38;0.50;;;16.00;97.90;;;;;;5037123;28;20022;-70
2021/10/05 11:36:21;;;;;;;0.95;0.45;;;16.20;97.90;;;;;;5036382;28;20033;-70
2021/10/05 11:38:50;;;;;;;1.55;0.50;;;16.30;97.40;;;;;;5036861;28;20032;-69
2021/10/05 11:41:19;;;;;;;3.38;0.60;;;16.40;96.60;;;;;;5037235;28;20025;-69
2021/10/05 11:43:52;;;;;;;1.08;0.43;;;16.50;96.20;;;;;;5037703;28;20014;-69
2021/10/05 11:46:25;;;;;;;1.27;0.60;;;16.50;95.90;;;;;;5019706;28;20112;-69
2021/10/05 11:48:57;;;;;;;0.93;0.50;;;16.50;96.20;;;;;;5037253;28;20020;-70
2021/10/05 11:51:27;;;;;;;2.72;0.60;;;16.50;96.10;;;;;;5037268;28;20022;-70
2021/10/05 11:53:58;;;;;;;1.33;0.40;;;16.50;95.90;;;;;;5037112;28;20422;-69
2021/10/05 11:56:28;;;;;;;0.85;0.40;;;16.50;95.50;;;;;;5037614;28;20369;-69
2021/10/05 11:59:00;;;;;;;1.20;0.40;;;16.50;95.60;;;;;;5037079;28;20029;-69
2021/10/05 12:01:30;;;;;;;1.00;0.55;;;16.40;95.60;;;;;;5036759;28;20064;-69
2021/10/05 12:04:06;;;;;;;1.05;0.50;;;16.50;95.80;;;;;;5040354;28;20406;-70
2021/10/05 12:06:51;;;;;;;0.60;0.40;;;16.60;94.90;;;;;;5039941;28;20030;-70
2021/10/05 12:09:24;;;;;;;1.08;0.40;;;16.60;94.00;;;;;;5040400;28;20104;-69
2021/10/05 12:11:58;;;;;;;0.80;0.38;;;16.70;94.00;;;;;;5039860;28;20108;-70
2021/10/05 12:14:35;;;;;;;1.08;0.50;;;16.70;93.90;;;;;;5039631;28;20032;-70
2021/10/05 12:17:06;;;;;;;0.90;0.47;;;16.80;94.40;;;;;;5022190;28;20072;-69
2021/10/05 12:19:43;;;;;;;2.95;0.93;;;17.00;93.20;;;;;;5039552;28;20029;-70
2021/10/05 12:22:11;;;;;;;0.70;0.50;;;17.10;92.70;;;;;;5040266;28;20055;-70
2021/10/05 12:24:46;;;;;;;2.45;0.60;;;17.10;93.00;;;;;;5022865;28;20382;-70
2021/10/05 12:27:19;;;;;;;2.55;0.65;;;17.20;92.70;;;;;;5040100;28;20052;-70
2021/10/05 12:29:53;;;;;;;1.15;0.60;;;17.20;93.30;;;;;;5040976;28;20052;-70
2021/10/05 12:32:32;;;;;;;0.93;0.40;;;17.30;93.40;;;;;;5022601;28;20034;-69
2021/10/05 12:35:00;;;;;;;1.05;0.50;;;17.20;93.00;;;;;;5040770;28;20032;-69
2021/10/05 12:37:31;;;;;;;1.35;0.60;;;17.20;93.00;;;;;;5040157;28;20029;-69
2021/10/05 12:40:04;;;;;;;0.70;0.50;;;17.10;93.20;;;;;;5022392;28;20417;-69
2021/10/05 12:42:43;;;;;;;1.30;0.65;;;17.00;93.20;;;;;;5039171;28;20109;-70
2021/10/05 12:45:12;;;;;;;0.80;0.50;;;17.00;93.50;;;;;;5039694;28;20025;-69
2021/10/05 12:47:55;;;;;;;1.45;0.68;;;17.00;93.30;;;;;;5039257;28;20021;-70
2021/10/05 12:50:31;;;;;;;1.23;0.70;;;17.00;93.30;;;;;;5039065;28;20022;-69
2021/10/05 12:53:02;;;;;;;2.67;0.60;;;17.10;93.50;;;;;;5038988;28;20417;-70
2021/10/05 12:55:30;;;;;;;1.00;0.50;;;17.00;93.60;;;;;;5021403;28;20078;-70
2021/10/05 12:57:59;;;;;;;1.80;0.52;;;17.00;93.70;;;;;;5039348;28;20028;-70
2021/10/05 13:00:28;;;;;;;2.33;0.80;;;16.90;93.60;;;;;;5038794;28;20028;-69
2021/10/05 13:02:56;;;;;;;1.50;0.60;;;16.90;93.50;;;;;;5039478;28;20049;-69